Terminal Aerodrome Forecast
Issued by NWS

Home | Current Version | Previous Version | Text Only | Print | Product List | Glossary On
Versions: 1 2 3 4 5 6 7 8 9 10 11 12 13 14 15
000
FTUS45 KBOI 252320
TAFTWF
TAF
KTWF 252320Z 2600/2624 26013KT P6SM VCSH SCT050 BKN070
     FM260200 20009KT P6SM SCT100 BKN250
     FM261500 27013KT P6SM FEW100 SCT250=

USA.gov is the U.S. government's official web portal to all federal, state and local government web resources and services.